createdAt,value
2018-05-14T00:00:51.561Z,12.80
2018-05-14T00:03:22.347Z,12.90
2018-05-14T00:05:49.842Z,12.90
2018-05-14T00:08:17.349Z,12.90
2018-05-14T00:10:44.847Z,12.90
2018-05-14T00:13:12.348Z,13.00
2018-05-14T00:15:39.874Z,13.00
2018-05-14T00:18:07.357Z,13.10
2018-05-14T00:20:35.256Z,13.10
2018-05-14T00:23:02.751Z,13.10
2018-05-14T00:25:30.258Z,13.10
2018-05-14T00:27:57.761Z,13.20
2018-05-14T00:30:25.297Z,13.20
2018-05-14T00:32:52.804Z,13.30
2018-05-14T00:35:20.686Z,13.30
2018-05-14T00:37:48.185Z,13.30
2018-05-14T00:40:15.704Z,13.30
2018-05-14T00:42:43.198Z,13.30
2018-05-14T00:45:10.696Z,13.40
2018-05-14T00:47:38.598Z,13.40
2018-05-14T00:50:06.097Z,13.40
2018-05-14T00:52:33.584Z,13.50
2018-05-14T00:55:13.457Z,13.50
2018-05-14T00:57:40.969Z,13.50
2018-05-14T01:00:08.466Z,13.60
2018-05-14T01:02:35.992Z,13.60
2018-05-14T01:05:03.892Z,13.60
2018-05-14T01:07:31.400Z,13.60
2018-05-14T01:09:58.901Z,13.60
2018-05-14T01:12:26.406Z,13.60
2018-05-14T01:14:53.927Z,13.60
2018-05-14T01:17:21.425Z,13.70
2018-05-14T01:19:48.909Z,13.70
2018-05-14T01:22:16.830Z,13.70
2018-05-14T01:24:49.909Z,13.70
2018-05-14T01:27:17.414Z,13.70
2018-05-14T01:29:45.306Z,13.80
2018-05-14T01:32:12.788Z,13.80
2018-05-14T01:34:40.304Z,13.80
2018-05-14T01:37:08.203Z,13.80
2018-05-14T01:39:35.749Z,13.80
2018-05-14T01:42:03.242Z,13.80
2018-05-14T01:44:30.751Z,13.80
2018-05-14T01:46:58.273Z,13.80
2018-05-14T01:49:25.797Z,13.80
2018-05-14T01:51:53.320Z,13.80
2018-05-14T01:54:21.210Z,13.80
2018-05-14T01:56:48.724Z,13.90
2018-05-14T01:59:16.246Z,13.80
2018-05-14T02:01:43.833Z,13.80
2018-05-14T02:04:11.357Z,13.90
2018-05-14T02:06:38.876Z,13.80
2018-05-14T02:09:06.774Z,13.80
2018-05-14T02:11:34.274Z,13.80
2018-05-14T02:14:01.758Z,13.80
2018-05-14T02:16:29.672Z,13.80
2018-05-14T02:18:57.158Z,13.80
2018-05-14T02:21:24.639Z,13.80
2018-05-14T02:23:52.549Z,13.80
2018-05-14T02:26:20.065Z,13.80
2018-05-14T02:28:47.937Z,13.80
2018-05-14T02:31:15.441Z,13.80
2018-05-14T02:33:42.983Z,13.80
2018-05-14T02:36:10.485Z,13.80
2018-05-14T02:38:37.978Z,13.80
2018-05-14T02:41:05.466Z,13.80
2018-05-14T02:43:32.950Z,13.80
2018-05-14T02:46:00.438Z,13.70
2018-05-14T02:48:28.318Z,13.70
2018-05-14T02:50:55.860Z,13.70
2018-05-14T02:53:23.763Z,13.70
2018-05-14T02:55:51.250Z,13.70
2018-05-14T02:58:18.770Z,13.70
2018-05-14T03:00:46.292Z,13.70
2018-05-14T03:03:13.789Z,13.60
2018-05-14T03:05:41.312Z,13.60
2018-05-14T03:08:09.202Z,13.60
2018-05-14T03:10:36.729Z,13.60
2018-05-14T03:13:04.616Z,13.60
2018-05-14T03:15:32.126Z,13.60
2018-05-14T03:17:59.665Z,13.60
2018-05-14T03:20:27.160Z,13.50
2018-05-14T03:22:55.104Z,13.50
2018-05-14T03:25:22.600Z,13.50
2018-05-14T03:27:50.095Z,13.50
2018-05-14T03:30:17.591Z,13.50
2018-05-14T03:32:45.077Z,13.40
2018-05-14T03:35:12.580Z,13.30
2018-05-14T03:37:40.078Z,13.30
2018-05-14T03:40:07.967Z,13.20
2018-05-14T03:42:35.461Z,13.20
2018-05-14T03:45:02.950Z,13.20
2018-05-14T03:47:30.840Z,13.20
2018-05-14T03:49:58.385Z,13.20
2018-05-14T03:52:26.266Z,13.10
2018-05-14T03:54:53.771Z,13.10
2018-05-14T03:57:21.278Z,13.10
2018-05-14T04:00:00.592Z,13.10
2018-05-14T04:02:40.444Z,13.10
2018-05-14T04:05:18.078Z,13.10
2018-05-14T04:07:45.605Z,13.10
2018-05-14T04:10:13.493Z,13.10
2018-05-14T04:12:41.834Z,13.10
2018-05-14T04:15:09.351Z,13.10
2018-05-14T04:17:36.841Z,13.10
2018-05-14T04:20:04.348Z,13.10
2018-05-14T04:22:31.854Z,13.10
2018-05-14T04:24:59.345Z,13.10
2018-05-14T04:27:26.854Z,13.10
2018-05-14T04:29:54.372Z,13.10
2018-05-14T04:32:21.892Z,13.10
2018-05-14T04:34:49.791Z,13.20
2018-05-14T04:37:17.308Z,13.20
2018-05-14T04:39:44.808Z,13.20
2018-05-14T04:42:12.333Z,13.20
2018-05-14T04:44:39.833Z,13.20
2018-05-14T04:47:07.346Z,13.30
2018-05-14T04:49:34.871Z,13.20
2018-05-14T04:52:02.376Z,13.30
2018-05-14T04:54:30.259Z,13.40
2018-05-14T04:56:57.774Z,13.40
2018-05-14T04:59:25.279Z,13.40
2018-05-14T05:01:52.788Z,13.50
2018-05-14T05:04:20.281Z,13.50
2018-05-14T05:06:48.175Z,13.60
2018-05-14T05:09:15.681Z,13.60
2018-05-14T05:11:43.187Z,13.60
2018-05-14T05:14:10.670Z,13.80
2018-05-14T05:16:38.168Z,13.80
2018-05-14T05:19:06.074Z,14.00
2018-05-14T05:21:33.589Z,14.00
2018-05-14T05:24:01.501Z,14.30
2018-05-14T05:26:29.024Z,14.30
2018-05-14T05:28:56.912Z,14.70
2018-05-14T05:31:24.422Z,14.70
2018-05-14T05:33:51.934Z,14.90
2018-05-14T05:36:19.416Z,15.10
2018-05-14T05:38:46.911Z,15.30
2018-05-14T05:41:14.801Z,15.80
2018-05-14T05:43:42.308Z,15.80
2018-05-14T05:46:09.815Z,16.10
2018-05-14T05:48:37.341Z,16.30
2018-05-14T05:51:05.238Z,16.60
2018-05-14T05:53:32.740Z,16.60
2018-05-14T05:56:00.307Z,16.80
2018-05-14T05:58:27.846Z,16.90
2018-05-14T06:00:55.345Z,17.00
2018-05-14T06:03:23.250Z,17.30
2018-05-14T06:05:50.767Z,17.30
2018-05-14T06:08:18.678Z,17.70
2018-05-14T06:10:46.190Z,17.70
2018-05-14T06:13:14.104Z,17.90
2018-05-14T06:15:41.631Z,17.90
2018-05-14T06:18:09.531Z,18.10
2018-05-14T06:20:37.029Z,18.10
2018-05-14T06:23:04.537Z,18.40
2018-05-14T06:25:32.045Z,18.60
2018-05-14T06:27:59.549Z,18.80
2018-05-14T06:30:27.049Z,18.90
2018-05-14T06:32:54.541Z,19.10
2018-05-14T06:35:22.077Z,19.10
2018-05-14T06:37:49.980Z,18.80
2018-05-14T06:40:17.507Z,18.80
2018-05-14T06:42:45.423Z,19.00
2018-05-14T06:45:13.001Z,19.00
2018-05-14T06:47:40.501Z,18.70
2018-05-14T06:50:08.396Z,19.30
2018-05-14T06:52:35.895Z,19.30
2018-05-14T06:55:03.438Z,19.20
2018-05-14T06:57:30.908Z,19.30
2018-05-14T06:59:58.424Z,19.20
2018-05-14T07:02:25.909Z,19.50
2018-05-14T07:04:53.410Z,20.00
2018-05-14T07:07:21.301Z,20.20
2018-05-14T07:09:48.823Z,20.30
2018-05-14T07:12:16.707Z,20.00
2018-05-14T07:14:44.235Z,20.00
2018-05-14T07:17:11.722Z,20.10
2018-05-14T07:19:39.222Z,19.80
2018-05-14T07:22:06.744Z,20.00
2018-05-14T07:24:34.240Z,20.50
2018-05-14T07:27:01.748Z,20.80
2018-05-14T07:29:29.267Z,21.10
2018-05-14T07:31:56.783Z,21.40
2018-05-14T07:34:24.811Z,21.70
2018-05-14T07:36:52.308Z,21.80
2018-05-14T07:39:19.802Z,21.70
2018-05-14T07:41:47.293Z,21.40
2018-05-14T07:44:15.178Z,22.00
2018-05-14T07:46:43.075Z,22.20
2018-05-14T07:49:10.566Z,22.20
2018-05-14T07:51:38.057Z,22.20
2018-05-14T07:54:05.574Z,22.50
2018-05-14T07:56:33.116Z,22.60
2018-05-14T07:59:00.624Z,23.00
2018-05-14T08:01:28.523Z,23.50
2018-05-14T08:03:56.050Z,23.50
2018-05-14T08:06:23.931Z,23.90
2018-05-14T08:08:51.436Z,23.90
2018-05-14T08:11:18.917Z,24.20
2018-05-14T08:13:46.431Z,24.50
2018-05-14T08:16:13.936Z,24.60
2018-05-14T08:18:41.853Z,24.50
2018-05-14T08:21:09.348Z,24.50
2018-05-14T08:23:36.918Z,24.30
2018-05-14T08:26:04.386Z,24.40
2018-05-14T08:28:32.306Z,24.90
2018-05-14T08:30:59.821Z,24.90
2018-05-14T08:33:27.359Z,25.30
2018-05-14T08:35:55.264Z,25.70
2018-05-14T08:38:22.771Z,25.70
2018-05-14T08:40:50.272Z,25.80
2018-05-14T08:43:17.758Z,26.10
2018-05-14T08:45:45.248Z,26.30
2018-05-14T08:48:13.136Z,27.10
2018-05-14T08:50:41.044Z,27.20
2018-05-14T08:53:08.555Z,27.10
2018-05-14T08:55:36.457Z,26.70
2018-05-14T08:58:03.952Z,26.70
2018-05-14T09:00:31.481Z,26.70
2018-05-14T09:02:58.981Z,27.00
2018-05-14T09:05:26.882Z,27.60
2018-05-14T09:07:54.393Z,27.60
2018-05-14T09:10:21.891Z,27.80
2018-05-14T09:12:49.409Z,27.90
2018-05-14T09:15:16.920Z,28.30
2018-05-14T09:17:44.417Z,28.60
2018-05-14T09:20:11.916Z,28.70
2018-05-14T09:22:39.421Z,29.00
2018-05-14T09:25:06.915Z,29.10
2018-05-14T09:27:34.415Z,28.70
2018-05-14T09:30:01.963Z,28.90
2018-05-14T09:32:29.466Z,28.50
2018-05-14T09:34:56.979Z,28.50
2018-05-14T09:37:24.457Z,28.70
2018-05-14T09:39:51.952Z,28.80
2018-05-14T09:42:19.834Z,28.80
2018-05-14T09:44:47.739Z,29.10
2018-05-14T09:47:15.242Z,29.10
2018-05-14T09:49:43.169Z,29.20
2018-05-14T09:52:10.679Z,29.20
2018-05-14T09:54:38.171Z,29.30
2018-05-14T09:57:05.678Z,29.30
2018-05-14T09:59:33.185Z,29.10
2018-05-14T10:02:00.730Z,29.20
2018-05-14T10:04:28.232Z,29.10
2018-05-14T10:09:46.220Z,29.50
2018-05-14T10:12:14.134Z,30.00
2018-05-14T10:14:41.652Z,30.00
2018-05-14T10:17:09.143Z,29.70
2018-05-14T10:19:36.632Z,29.70
2018-05-14T10:22:04.141Z,29.80
2018-05-14T10:24:31.766Z,30.00
2018-05-14T10:26:59.388Z,30.20
2018-05-14T10:29:26.682Z,30.10
2018-05-14T10:31:54.635Z,30.00
2018-05-14T10:34:22.108Z,30.00
2018-05-14T10:36:50.007Z,30.00
2018-05-14T10:39:17.516Z,30.00
2018-05-14T10:41:45.024Z,30.20
2018-05-14T10:44:12.529Z,30.20
2018-05-14T10:46:40.076Z,30.00
2018-05-14T10:49:07.552Z,29.90
2018-05-14T10:51:35.057Z,29.90
2018-05-14T10:54:02.557Z,30.10
2018-05-14T10:56:30.076Z,30.10
2018-05-14T10:58:57.572Z,30.30
2018-05-14T11:01:25.080Z,29.90
2018-05-14T11:03:52.665Z,29.80
2018-05-14T11:06:20.519Z,29.20
2018-05-14T11:08:48.119Z,29.20
2018-05-14T11:11:15.628Z,29.60
2018-05-14T11:13:43.191Z,29.30
2018-05-14T11:16:10.698Z,29.10
2018-05-14T11:18:38.600Z,29.70
2018-05-14T11:21:06.126Z,29.60
2018-05-14T11:23:34.060Z,29.50
2018-05-14T11:26:01.602Z,29.50
2018-05-14T11:28:29.166Z,29.70
2018-05-14T11:30:56.690Z,29.80
2018-05-14T11:33:24.196Z,29.90
2018-05-14T11:35:51.701Z,30.10
2018-05-14T11:38:19.190Z,29.80
2018-05-14T11:40:46.752Z,29.60
2018-05-14T11:43:14.237Z,30.10
2018-05-14T11:45:41.780Z,30.00
2018-05-14T11:48:09.257Z,30.10
2018-05-14T11:50:37.717Z,30.40
2018-05-14T11:53:05.213Z,30.30
2018-05-14T11:55:33.133Z,30.60
2018-05-14T11:58:00.640Z,30.60
2018-05-14T12:00:28.536Z,30.20
2018-05-14T12:02:56.151Z,30.20
2018-05-14T12:05:23.697Z,30.10
2018-05-14T12:07:51.218Z,29.70
2018-05-14T12:10:18.713Z,29.30
2018-05-14T12:12:46.218Z,29.00
2018-05-14T12:15:13.735Z,28.80
2018-05-14T12:17:41.241Z,29.20
2018-05-14T12:20:08.754Z,29.50
2018-05-14T12:22:36.267Z,29.20
2018-05-14T12:25:03.754Z,29.20
2018-05-14T12:27:31.267Z,29.60
2018-05-14T12:29:58.779Z,29.70
2018-05-14T12:32:26.293Z,29.50
2018-05-14T12:34:53.794Z,29.60
2018-05-14T12:37:21.281Z,29.50
2018-05-14T12:39:49.593Z,29.70
2018-05-14T12:42:17.100Z,29.70
2018-05-14T12:44:45.317Z,29.90
2018-05-14T12:47:13.023Z,29.90
2018-05-14T12:49:40.854Z,30.40
2018-05-14T12:52:08.520Z,30.60
2018-05-14T12:54:36.039Z,30.30
2018-05-14T12:57:03.534Z,30.50
2018-05-14T12:59:31.061Z,30.50
2018-05-14T13:01:58.558Z,30.50
2018-05-14T13:04:26.078Z,30.60
2018-05-14T13:06:53.676Z,30.60
2018-05-14T13:09:21.174Z,30.70
2018-05-14T13:11:49.066Z,30.90
2018-05-14T13:14:16.591Z,30.90
2018-05-14T13:16:44.552Z,30.90
2018-05-14T13:19:12.043Z,30.90
2018-05-14T13:21:39.568Z,30.80
2018-05-14T13:24:07.067Z,30.60
2018-05-14T13:26:34.567Z,30.60
2018-05-14T13:29:02.089Z,30.70
2018-05-14T13:31:29.627Z,30.30
2018-05-14T13:33:57.520Z,30.40
2018-05-14T13:36:25.022Z,30.40
2018-05-14T13:38:52.943Z,29.80
2018-05-14T13:41:20.434Z,29.90
2018-05-14T13:43:47.934Z,30.10
2018-05-14T13:46:15.430Z,30.40
2018-05-14T13:48:42.940Z,30.00
2018-05-14T13:51:10.825Z,30.00
2018-05-14T13:53:38.323Z,29.90
2018-05-14T13:56:05.851Z,30.30
2018-05-14T13:58:33.767Z,30.40
2018-05-14T14:01:01.690Z,30.40
2018-05-14T14:03:31.117Z,30.40
2018-05-14T14:05:58.634Z,30.40
2018-05-14T14:08:26.174Z,30.50
2018-05-14T14:10:54.079Z,30.50
2018-05-14T14:13:21.957Z,30.50
2018-05-14T14:15:49.467Z,30.50
2018-05-14T14:18:16.977Z,30.60
2018-05-14T14:20:44.470Z,30.40
2018-05-14T14:23:12.171Z,30.00
2018-05-14T14:25:39.569Z,29.70
2018-05-14T14:28:07.087Z,29.90
2018-05-14T14:30:34.586Z,30.20
2018-05-14T14:33:02.112Z,30.40
2018-05-14T14:35:29.691Z,30.40
2018-05-14T14:37:57.173Z,30.10
2018-05-14T14:40:24.725Z,30.00
2018-05-14T14:42:56.489Z,30.40
2018-05-14T14:45:24.407Z,30.00
2018-05-14T14:47:51.916Z,30.00
2018-05-14T14:50:19.826Z,30.40
2018-05-14T14:52:47.348Z,30.40
2018-05-14T14:55:14.901Z,30.70
2018-05-14T14:57:42.395Z,30.40
2018-05-14T15:00:09.909Z,30.30
2018-05-14T15:02:37.823Z,30.10
2018-05-14T15:05:05.328Z,30.10
2018-05-14T15:07:32.827Z,29.90
2018-05-14T15:10:00.339Z,29.60
2018-05-14T15:12:27.844Z,29.60
2018-05-14T15:14:55.362Z,29.90
2018-05-14T15:17:24.233Z,29.30
2018-05-14T15:19:51.946Z,29.30
2018-05-14T15:22:19.453Z,29.30
2018-05-14T15:24:46.948Z,29.00
2018-05-14T15:27:14.494Z,28.70
2018-05-14T15:29:42.036Z,28.30
2018-05-14T15:32:09.571Z,27.70
2018-05-14T15:34:37.089Z,27.30
2018-05-14T15:37:04.604Z,27.00
2018-05-14T15:39:32.109Z,26.80
2018-05-14T15:41:59.627Z,27.00
2018-05-14T15:44:27.130Z,27.10
2018-05-14T15:46:54.749Z,27.40
2018-05-14T15:49:22.233Z,27.50
2018-05-14T15:51:49.745Z,27.60
2018-05-14T15:54:17.267Z,27.70
2018-05-14T15:56:44.793Z,27.80
2018-05-14T15:59:12.302Z,27.60
2018-05-14T16:01:39.803Z,27.60
2018-05-14T16:04:07.685Z,27.50
2018-05-14T16:06:36.026Z,27.50
2018-05-14T16:09:03.945Z,27.40
2018-05-14T16:11:31.481Z,27.40
2018-05-14T16:13:59.406Z,27.30
2018-05-14T16:16:26.910Z,27.30
2018-05-14T16:18:54.411Z,27.40
2018-05-14T16:21:21.928Z,27.30
2018-05-14T16:23:49.411Z,27.10
2018-05-14T16:26:16.920Z,27.00
2018-05-14T16:28:44.836Z,26.90
2018-05-14T16:31:12.348Z,27.00
2018-05-14T16:33:40.285Z,26.80
2018-05-14T16:36:07.797Z,26.80
2018-05-14T16:38:35.300Z,26.80
2018-05-14T16:41:02.801Z,26.60
2018-05-14T16:43:30.326Z,26.50
2018-05-14T16:45:57.835Z,26.50
2018-05-14T16:48:25.344Z,26.50
2018-05-14T16:50:52.855Z,26.50
2018-05-14T16:53:20.373Z,26.50
2018-05-14T16:55:47.896Z,26.30
2018-05-14T16:58:15.408Z,26.40
2018-05-14T17:00:42.896Z,26.20
2018-05-14T17:03:10.402Z,26.20
2018-05-14T17:05:37.951Z,26.00
2018-05-14T17:08:05.529Z,26.00
2018-05-14T17:10:33.401Z,25.80
2018-05-14T17:13:00.913Z,25.80
2018-05-14T17:15:28.413Z,25.80
2018-05-14T17:17:56.329Z,25.70
2018-05-14T17:20:26.716Z,25.70
2018-05-14T17:22:54.229Z,25.70
2018-05-14T17:25:21.737Z,25.60
2018-05-14T17:27:51.186Z,25.60
2018-05-14T17:30:18.693Z,25.60
2018-05-14T17:32:46.189Z,25.50
2018-05-14T17:35:13.693Z,25.50
2018-05-14T17:37:41.573Z,25.40
2018-05-14T17:40:09.484Z,25.30
2018-05-14T17:42:37.001Z,25.30
2018-05-14T17:45:04.528Z,25.20
2018-05-14T17:47:32.035Z,25.20
2018-05-14T17:49:59.542Z,25.20
2018-05-14T17:52:27.053Z,25.10
2018-05-14T17:54:54.549Z,25.10
2018-05-14T17:57:22.069Z,25.10
2018-05-14T17:59:49.563Z,25.00
2018-05-14T18:02:17.102Z,24.90
2018-05-14T18:04:44.608Z,24.80
2018-05-14T18:07:12.529Z,24.60
2018-05-14T18:09:40.090Z,24.60
2018-05-14T18:12:08.642Z,24.50
2018-05-14T18:14:36.252Z,24.40
2018-05-14T18:17:03.772Z,24.30
2018-05-14T18:19:36.810Z,24.20
2018-05-14T18:22:13.085Z,24.10
2018-05-14T18:24:46.306Z,24.00
2018-05-14T18:30:15.078Z,23.70
2018-05-14T18:32:48.153Z,23.60
2018-05-14T18:35:20.241Z,23.50
2018-05-14T18:37:48.140Z,23.30
2018-05-14T18:40:15.649Z,23.30
2018-05-14T18:42:43.147Z,23.10
2018-05-14T18:45:11.225Z,23.00
2018-05-14T18:47:38.945Z,22.90
2018-05-14T18:50:06.842Z,22.70
2018-05-14T18:52:36.402Z,22.70
2018-05-14T18:55:04.325Z,22.50
2018-05-14T18:57:31.834Z,22.50
2018-05-14T18:59:59.746Z,22.30
2018-05-14T19:02:27.286Z,22.30
2018-05-14T19:04:54.798Z,22.20
2018-05-14T19:07:22.300Z,22.20
2018-05-14T19:12:14.578Z,22.00
2018-05-14T19:14:42.089Z,21.90
2018-05-14T19:17:15.737Z,21.70
2018-05-14T19:19:43.289Z,21.70
2018-05-14T19:22:16.342Z,21.60
2018-05-14T19:24:44.249Z,21.50
2018-05-14T19:27:11.776Z,21.50
2018-05-14T19:29:39.295Z,21.40
2018-05-14T19:32:06.809Z,21.30
2018-05-14T19:34:39.878Z,21.30
2018-05-14T19:37:07.785Z,21.10
2018-05-14T19:39:41.571Z,21.10
2018-05-14T19:42:11.053Z,21.00
2018-05-14T19:44:38.581Z,20.90
2018-05-14T19:47:10.362Z,20.80
2018-05-14T19:49:39.016Z,20.70
2018-05-14T19:52:06.467Z,20.60
2018-05-14T19:54:33.953Z,20.50
2018-05-14T19:57:01.869Z,20.40
2018-05-14T19:59:29.366Z,20.40
2018-05-14T20:01:56.907Z,20.30
2018-05-14T20:04:24.446Z,20.30
2018-05-14T20:06:52.013Z,20.20
2018-05-14T20:09:19.508Z,20.10
2018-05-14T20:11:47.020Z,20.00
2018-05-14T20:14:14.526Z,20.00
2018-05-14T20:16:43.397Z,19.90
2018-05-14T20:19:10.941Z,19.90
2018-05-14T20:21:38.447Z,19.80
2018-05-14T20:24:05.942Z,19.80
2018-05-14T20:26:33.430Z,19.80
2018-05-14T20:29:01.002Z,19.70
2018-05-14T20:31:28.508Z,19.60
2018-05-14T20:33:56.002Z,19.50
2018-05-14T20:36:23.524Z,19.40
2018-05-14T20:38:51.027Z,19.30
2018-05-14T20:41:18.968Z,19.10
2018-05-14T20:43:46.566Z,19.10
2018-05-14T20:46:14.476Z,19.00
2018-05-14T20:48:42.017Z,19.00
2018-05-14T20:51:09.532Z,18.90
2018-05-14T20:53:37.445Z,18.70
2018-05-14T20:56:04.961Z,18.70
2018-05-14T20:58:32.447Z,18.60
2018-05-14T21:00:59.938Z,18.50
2018-05-14T21:03:27.425Z,18.40
2018-05-14T21:05:54.928Z,18.30
2018-05-14T21:08:22.430Z,18.20
2018-05-14T21:10:49.935Z,18.20
2018-05-14T21:13:17.561Z,18.10
2018-05-14T21:15:45.069Z,18.00
2018-05-14T21:18:12.572Z,17.90
2018-05-14T21:20:40.061Z,17.90
2018-05-14T21:23:07.542Z,17.80
2018-05-14T21:25:35.069Z,17.70
2018-05-14T21:28:02.950Z,17.60
2018-05-14T21:30:30.438Z,17.60
2018-05-14T21:32:57.959Z,17.60
2018-05-14T21:35:25.475Z,17.50
2018-05-14T21:37:52.967Z,17.50
2018-05-14T21:40:20.867Z,17.30
2018-05-14T21:42:48.358Z,17.40
2018-05-14T21:45:15.859Z,17.30
2018-05-14T21:47:43.422Z,17.20
2018-05-14T21:50:10.980Z,17.10
2018-05-14T21:52:38.534Z,17.00
2018-05-14T21:55:06.027Z,16.90
2018-05-14T21:57:33.529Z,16.80
2018-05-14T22:00:01.409Z,16.60
2018-05-14T22:02:28.908Z,16.60
2018-05-14T22:04:56.402Z,16.50
2018-05-14T22:07:24.301Z,16.30
2018-05-14T22:09:51.786Z,16.30
2018-05-14T22:12:19.303Z,16.20
2018-05-14T22:14:46.839Z,16.20
2018-05-14T22:17:14.768Z,16.20
2018-05-14T22:19:42.311Z,16.20
2018-05-14T22:22:09.805Z,16.30
2018-05-14T22:24:37.277Z,16.20
2018-05-14T22:27:04.790Z,16.20
2018-05-14T22:29:32.278Z,16.10
2018-05-14T22:31:59.796Z,16.10
2018-05-14T22:34:27.279Z,16.00
2018-05-14T22:36:54.777Z,16.00
2018-05-14T22:39:22.692Z,15.90
2018-05-14T22:41:50.165Z,15.90
2018-05-14T22:44:17.662Z,15.80
2018-05-14T22:46:45.153Z,15.80
2018-05-14T22:49:12.668Z,15.80
2018-05-14T22:51:40.576Z,15.70
2018-05-14T22:54:08.070Z,15.70
2018-05-14T22:56:35.595Z,15.60
2018-05-14T22:59:05.337Z,15.50
2018-05-14T23:01:32.827Z,15.40
2018-05-14T23:04:03.381Z,15.20
2018-05-14T23:06:31.453Z,15.30
2018-05-14T23:08:58.945Z,15.20
2018-05-14T23:11:27.376Z,15.10
2018-05-14T23:13:54.889Z,15.00
2018-05-14T23:16:23.484Z,14.90
2018-05-14T23:18:50.994Z,14.80
2018-05-14T23:21:18.494Z,14.80
2018-05-14T23:23:46.029Z,14.70
2018-05-14T23:26:13.536Z,14.60
2018-05-14T23:28:41.060Z,14.50
2018-05-14T23:31:08.542Z,14.50
2018-05-14T23:33:37.605Z,14.40
2018-05-14T23:36:05.095Z,14.30
2018-05-14T23:38:33.014Z,14.20
2018-05-14T23:41:01.085Z,14.20
2018-05-14T23:43:28.570Z,14.10
2018-05-14T23:45:56.150Z,14.10
2018-05-14T23:48:26.728Z,14.00
2018-05-14T23:50:54.249Z,13.90
2018-05-14T23:53:21.752Z,13.80
2018-05-14T23:55:49.239Z,13.80
2018-05-14T23:58:16.740Z,13.70
